createdAt,value
2018-12-24T00:01:24.466Z,5.27
2018-12-24T00:04:09.062Z,5.80
2018-12-24T00:06:52.555Z,6.00
2018-12-24T00:09:36.790Z,5.83
2018-12-24T00:12:07.165Z,5.73
2018-12-24T00:14:54.317Z,6.93
2018-12-24T00:17:38.687Z,7.20
2018-12-24T00:20:22.873Z,7.13
2018-12-24T00:23:07.269Z,8.10
2018-12-24T00:25:51.162Z,7.70
2018-12-24T00:28:34.732Z,7.93
2018-12-24T00:31:20.207Z,8.27
2018-12-24T00:34:03.767Z,8.13
2018-12-24T00:36:47.993Z,8.77
2018-12-24T00:39:34.112Z,8.87
2018-12-24T00:42:18.617Z,9.73
2018-12-24T00:45:02.742Z,9.47
2018-12-24T00:50:54.198Z,9.77
2018-12-24T00:53:22.462Z,11.10
2018-12-24T00:56:10.271Z,10.63
2018-12-24T00:58:55.629Z,10.83
2018-12-24T01:01:40.530Z,9.87
2018-12-24T01:04:24.779Z,9.00
2018-12-24T01:07:10.116Z,8.90
2018-12-24T01:09:54.606Z,9.50
2018-12-24T01:12:38.694Z,9.03
2018-12-24T01:15:24.117Z,8.57
2018-12-24T01:23:26.753Z,6.07
2018-12-24T01:26:14.431Z,8.13
2018-12-24T01:28:42.726Z,8.73
2018-12-24T01:31:34.199Z,8.37
2018-12-24T01:34:18.292Z,9.70
2018-12-24T01:37:02.896Z,9.50
2018-12-24T01:39:46.550Z,9.67
2018-12-24T01:42:33.563Z,10.83
2018-12-24T01:45:02.214Z,10.70
2018-12-24T01:47:49.724Z,10.93
2018-12-24T01:50:32.923Z,11.80
2018-12-24T01:56:04.869Z,12.33
2018-12-24T01:58:51.963Z,13.67
2018-12-24T02:01:37.145Z,13.30
2018-12-24T02:04:21.872Z,12.53
2018-12-24T02:07:05.396Z,13.67
2018-12-24T02:09:49.791Z,13.50
2018-12-24T02:12:42.061Z,13.53
2018-12-24T02:15:19.885Z,13.47
2018-12-24T02:18:03.756Z,13.07
2018-12-24T02:20:50.450Z,13.23
2018-12-24T02:23:33.662Z,12.93
2018-12-24T02:26:18.227Z,11.60
2018-12-24T02:29:01.899Z,10.70
2018-12-24T02:34:34.350Z,9.43
2018-12-24T02:37:18.499Z,9.70
2018-12-24T02:40:02.662Z,9.30
2018-12-24T02:42:30.953Z,8.63
2018-12-24T02:45:19.624Z,9.60
2018-12-24T02:48:04.780Z,9.50
2018-12-24T02:50:48.517Z,9.33
2018-12-24T02:53:33.375Z,10.47
2018-12-24T02:59:03.028Z,10.27
2018-12-24T03:01:47.423Z,10.17
2018-12-24T03:04:31.497Z,11.37
2018-12-24T03:07:15.903Z,10.93
2018-12-24T03:10:00.018Z,10.67
2018-12-24T03:12:44.936Z,10.70
2018-12-24T03:15:29.114Z,11.17
2018-12-24T03:18:13.376Z,11.30
2018-12-24T03:20:41.919Z,11.53
2018-12-24T03:23:29.434Z,10.53
2018-12-24T03:26:13.903Z,11.03
2018-12-24T03:28:58.494Z,11.63
2018-12-24T03:31:42.695Z,11.50
2018-12-24T03:34:11.712Z,12.20
2018-12-24T03:36:59.244Z,11.03
2018-12-24T03:39:43.784Z,10.77
2018-12-24T03:42:13.346Z,11.30
2018-12-24T03:44:41.934Z,11.67
2018-12-24T03:47:25.397Z,10.80
2018-12-24T03:52:57.599Z,10.43
2018-12-24T03:55:41.928Z,11.17
2018-12-24T03:58:25.822Z,10.50
2018-12-24T04:01:12.091Z,10.77
2018-12-24T04:03:56.967Z,10.23
2018-12-24T04:06:42.238Z,10.47
2018-12-24T04:09:12.749Z,9.53
2018-12-24T04:15:12.572Z,7.77
2018-12-24T04:20:45.489Z,7.27
2018-12-24T04:23:29.463Z,7.07
2018-12-24T04:26:13.934Z,6.90
2018-12-24T04:28:59.170Z,7.03
2018-12-24T04:31:27.498Z,6.40
2018-12-24T04:33:55.857Z,5.90
2018-12-24T04:36:24.245Z,6.17
2018-12-24T04:39:11.812Z,6.57
2018-12-24T04:41:56.413Z,5.77
2018-12-24T04:44:40.433Z,5.97
2018-12-24T04:47:25.928Z,5.70
2018-12-24T04:50:09.633Z,6.47
2018-12-24T04:52:38.782Z,5.90
2018-12-24T04:55:26.625Z,5.63
2018-12-24T04:58:10.642Z,6.13
2018-12-24T05:00:54.650Z,6.60
2018-12-24T05:03:39.476Z,6.13
2018-12-24T05:06:23.533Z,6.40
2018-12-24T05:09:10.133Z,6.77
2018-12-24T05:11:55.005Z,6.37
2018-12-24T05:14:40.165Z,6.80
2018-12-24T05:17:46.131Z,7.20
2018-12-24T05:20:14.094Z,7.17
2018-12-24T05:22:57.469Z,6.60
2018-12-24T05:25:41.562Z,6.83
2018-12-24T05:28:24.997Z,7.23
2018-12-24T05:31:12.239Z,7.57
2018-12-24T05:42:34.197Z,7.13
2018-12-24T05:45:20.885Z,7.23
2018-12-24T05:48:12.610Z,7.67
2018-12-24T05:51:16.211Z,7.57
2018-12-24T05:53:43.103Z,7.30
2018-12-24T05:56:47.605Z,8.47
2018-12-24T05:59:13.486Z,7.17
2018-12-24T06:01:58.056Z,8.10
2018-12-24T06:04:42.171Z,7.87
2018-12-24T06:07:26.219Z,7.13
2018-12-24T06:10:10.564Z,7.60
2018-12-24T06:12:39.057Z,7.60
2018-12-24T06:15:27.224Z,7.27
2018-12-24T06:18:12.005Z,7.63
2018-12-24T06:26:29.540Z,6.83
2018-12-24T06:29:14.067Z,7.43
2018-12-24T06:31:58.220Z,7.43
2018-12-24T06:34:43.241Z,7.53
2018-12-24T06:40:13.163Z,7.93
2018-12-24T06:42:59.618Z,7.77
2018-12-24T06:45:43.549Z,8.10
2018-12-24T06:55:01.096Z,8.73
2018-12-24T07:00:55.956Z,8.60
2018-12-24T07:09:40.651Z,8.90
2018-12-24T07:12:26.003Z,8.43
2018-12-24T07:18:08.916Z,8.67
2018-12-24T07:23:10.969Z,9.80
2018-12-24T07:25:51.806Z,8.10
2018-12-24T07:28:44.558Z,8.27
2018-12-24T07:31:05.683Z,8.30
2018-12-24T07:33:48.479Z,8.40
2018-12-24T07:36:32.894Z,8.53
2018-12-24T07:39:05.650Z,8.93
2018-12-24T07:41:43.552Z,8.43
2018-12-24T07:44:24.289Z,9.97
2018-12-24T07:47:21.997Z,8.50
2018-12-24T07:50:14.497Z,9.07
2018-12-24T07:53:01.220Z,8.17
2018-12-24T07:55:47.358Z,9.77
2018-12-24T07:58:16.899Z,8.03
2018-12-24T08:00:46.376Z,8.10
2018-12-24T08:03:14.995Z,8.33
2018-12-24T08:05:43.461Z,8.43
2018-12-24T08:08:15.575Z,8.30
2018-12-24T08:10:44.156Z,8.03
2018-12-24T08:13:12.433Z,7.73
2018-12-24T08:15:40.803Z,8.60
2018-12-24T08:18:09.037Z,8.07
2018-12-24T08:20:37.848Z,7.90
2018-12-24T08:23:07.848Z,7.10
2018-12-24T08:25:40.995Z,6.93
2018-12-24T08:28:28.681Z,7.30
2018-12-24T08:30:58.971Z,6.33
2018-12-24T08:33:27.585Z,5.93
2018-12-24T08:35:59.017Z,5.90
2018-12-24T08:38:30.013Z,6.77
2018-12-24T08:40:58.316Z,6.33
2018-12-24T08:43:26.782Z,7.03
2018-12-24T08:45:55.289Z,6.77
2018-12-24T08:48:27.918Z,6.67
2018-12-24T08:51:03.261Z,6.07
2018-12-24T08:53:40.880Z,6.23
2018-12-24T08:56:52.755Z,6.33
2018-12-24T08:59:17.053Z,6.40
2018-12-24T09:01:54.053Z,5.87
2018-12-24T09:04:25.658Z,6.37
2018-12-24T09:07:23.709Z,6.27
2018-12-24T09:09:57.499Z,6.50
2018-12-24T09:12:32.534Z,6.20
2018-12-24T09:15:11.520Z,6.37
2018-12-24T09:17:40.834Z,5.63
2018-12-24T09:20:10.071Z,5.77
2018-12-24T09:22:41.493Z,5.47
2018-12-24T09:25:17.118Z,5.00
2018-12-24T09:28:09.015Z,5.43
2018-12-24T09:30:51.922Z,4.83
2018-12-24T09:33:41.641Z,4.27
2018-12-24T09:36:26.128Z,3.37
2018-12-24T09:48:29.979Z,2.40
2018-12-24T09:51:55.435Z,2.70
2018-12-24T10:35:36.032Z,2.20
2018-12-24T10:53:36.166Z,1.80
2018-12-24T10:56:15.847Z,1.60
2018-12-24T11:45:08.169Z,1.63
2018-12-24T11:58:13.470Z,1.83
2018-12-24T12:00:57.271Z,1.63
2018-12-24T12:06:55.461Z,1.80
2018-12-24T12:10:44.752Z,2.00
2018-12-24T12:17:07.623Z,2.00
2018-12-24T12:20:03.514Z,1.57
2018-12-24T12:25:36.341Z,1.80
2018-12-24T12:28:06.382Z,2.03
2018-12-24T12:30:37.971Z,1.57
2018-12-24T12:33:06.663Z,1.60
2018-12-24T12:35:54.535Z,1.90
2018-12-24T12:48:03.667Z,1.80
2018-12-24T12:51:50.278Z,1.80
2018-12-24T12:57:46.660Z,1.53
2018-12-24T13:00:20.301Z,1.60
2018-12-24T13:03:19.927Z,1.70
2018-12-24T13:38:15.618Z,24.30
2018-12-24T13:41:11.957Z,8.17
2018-12-24T13:43:58.273Z,3.93
2018-12-24T13:46:43.253Z,2.40
2018-12-24T13:49:11.457Z,2.10
2018-12-24T13:57:45.823Z,1.53
2018-12-24T14:00:27.178Z,1.60
2018-12-24T14:03:19.202Z,1.40
2018-12-24T14:05:47.780Z,1.90
2018-12-24T14:08:15.964Z,1.37
2018-12-24T14:10:44.221Z,1.30
2018-12-24T14:13:14.356Z,1.63
2018-12-24T14:16:05.705Z,2.17
2018-12-24T14:18:39.507Z,1.33
2018-12-24T14:24:33.093Z,2.00
2018-12-24T14:27:19.948Z,2.10
2018-12-24T14:30:15.844Z,5.50
2018-12-24T14:33:10.496Z,7.87
2018-12-24T14:36:10.918Z,4.87
2018-12-24T14:38:44.220Z,3.70
2018-12-24T14:46:11.686Z,3.00
2018-12-24T14:47:03.790Z,1.63
2018-12-24T14:49:37.713Z,1.97
2018-12-24T14:52:05.948Z,2.37
2018-12-24T14:54:34.348Z,1.83
2018-12-24T14:57:06.724Z,1.63
2018-12-24T14:59:35.030Z,2.00
2018-12-24T15:02:03.379Z,1.70
2018-12-24T15:04:31.500Z,1.70
2018-12-24T15:07:02.380Z,1.73
2018-12-24T15:09:30.597Z,2.13
2018-12-24T15:11:58.777Z,2.27
2018-12-24T15:14:26.902Z,1.77
2018-12-24T15:16:55.040Z,2.03
2018-12-24T15:19:23.286Z,2.20
2018-12-24T15:21:51.438Z,2.57
2018-12-24T15:24:19.631Z,2.37
2018-12-24T15:26:47.866Z,2.10
2018-12-24T15:29:16.020Z,2.57
2018-12-24T15:31:44.322Z,2.43
2018-12-24T15:34:12.454Z,3.00
2018-12-24T15:36:40.598Z,3.10
2018-12-24T15:39:09.715Z,3.27
2018-12-24T15:41:37.954Z,4.37
2018-12-24T15:44:06.397Z,4.77
2018-12-24T15:46:42.509Z,4.23
2018-12-24T15:49:04.533Z,7.20
2018-12-24T15:51:32.774Z,8.37
2018-12-24T15:54:03.704Z,9.83
2018-12-24T15:56:34.801Z,7.27
2018-12-24T15:59:04.249Z,7.90
2018-12-24T16:01:32.511Z,7.63
2018-12-24T16:04:00.682Z,5.40
2018-12-24T16:06:29.099Z,4.40
2018-12-24T16:08:58.135Z,4.53
2018-12-24T16:11:26.853Z,4.70
2018-12-24T16:13:54.894Z,4.80
2018-12-24T16:16:23.250Z,6.80
2018-12-24T16:18:52.758Z,7.97
2018-12-24T16:21:21.247Z,6.43
2018-12-24T16:23:49.529Z,8.13
2018-12-24T16:26:17.866Z,12.93
2018-12-24T16:28:46.441Z,13.83
2018-12-24T16:31:14.876Z,8.40
2018-12-24T16:33:44.721Z,9.20
2018-12-24T16:36:13.000Z,8.87
2018-12-24T16:38:39.788Z,10.23
2018-12-24T16:41:08.089Z,9.97
2018-12-24T16:43:36.466Z,12.57
2018-12-24T16:46:04.730Z,12.07
2018-12-24T16:48:34.089Z,16.00
2018-12-24T16:51:02.298Z,18.13
2018-12-24T16:53:30.518Z,14.47
2018-12-24T16:55:59.223Z,11.80
2018-12-24T16:58:27.431Z,26.37
2018-12-24T17:00:55.989Z,18.83
2018-12-24T17:03:24.247Z,21.70
2018-12-24T17:05:56.359Z,16.40
2018-12-24T17:08:24.739Z,15.17
2018-12-24T17:10:52.969Z,15.07
2018-12-24T17:13:22.284Z,13.90
2018-12-24T17:15:50.567Z,15.70
2018-12-24T17:18:20.235Z,15.23
2018-12-24T17:20:48.361Z,15.50
2018-12-24T17:23:16.586Z,15.03
2018-12-24T17:25:44.993Z,13.00
2018-12-24T17:28:13.339Z,12.03
2018-12-24T17:30:41.680Z,12.90
2018-12-24T17:33:09.981Z,15.00
2018-12-24T17:35:38.108Z,14.60
2018-12-24T17:38:10.323Z,14.17
2018-12-24T17:40:38.329Z,13.80
2018-12-24T17:43:06.485Z,12.70
2018-12-24T17:45:43.527Z,13.97
2018-12-24T17:48:11.719Z,18.27
2018-12-24T17:50:39.961Z,17.17
2018-12-24T17:53:14.382Z,16.50
2018-12-24T17:56:00.499Z,15.40
2018-12-24T17:58:27.710Z,17.37
2018-12-24T18:00:58.360Z,15.20
2018-12-24T18:03:26.575Z,18.43
2018-12-24T18:05:55.293Z,19.30
2018-12-24T18:08:23.533Z,21.63
2018-12-24T18:10:51.647Z,22.83
2018-12-24T18:13:28.669Z,24.13
2018-12-24T18:15:59.809Z,20.63
2018-12-24T18:18:27.908Z,21.20
2018-12-24T18:20:56.043Z,23.27
2018-12-24T18:23:24.175Z,25.33
2018-12-24T18:25:52.334Z,22.10
2018-12-24T18:28:21.007Z,20.50
2018-12-24T18:30:49.170Z,24.37
2018-12-24T18:33:17.387Z,26.07
2018-12-24T18:35:47.367Z,26.10
2018-12-24T18:38:15.593Z,25.10
2018-12-24T18:40:43.716Z,23.30
2018-12-24T18:43:11.996Z,23.50
2018-12-24T18:45:40.245Z,25.33
2018-12-24T18:48:08.451Z,23.27
2018-12-24T18:50:36.584Z,25.00
2018-12-24T18:53:04.701Z,23.57
2018-12-24T18:55:32.968Z,21.00
2018-12-24T18:58:01.274Z,23.33
2018-12-24T19:00:31.954Z,23.23
2018-12-24T19:03:30.763Z,22.57
2018-12-24T19:05:58.902Z,23.13
2018-12-24T19:08:27.121Z,23.20
2018-12-24T19:10:55.326Z,22.30
2018-12-24T19:13:30.904Z,22.47
2018-12-24T19:15:56.541Z,21.37
2018-12-24T19:18:25.305Z,23.67
2018-12-24T19:20:53.612Z,24.50
2018-12-24T19:23:22.066Z,30.03
2018-12-24T19:25:50.398Z,28.70
2018-12-24T19:28:18.643Z,24.43
2018-12-24T19:30:46.992Z,22.77
2018-12-24T19:33:15.146Z,21.93
2018-12-24T19:35:43.356Z,19.07
2018-12-24T19:38:12.318Z,19.97
2018-12-24T19:40:40.400Z,17.13
2018-12-24T19:43:08.817Z,14.20
2018-12-24T19:45:36.958Z,15.93
2018-12-24T19:48:05.424Z,15.00
2018-12-24T19:50:35.435Z,14.80
2018-12-24T19:53:04.093Z,17.40
2018-12-24T19:55:32.303Z,15.23
2018-12-24T19:58:00.484Z,16.00
2018-12-24T20:00:28.667Z,18.17
2018-12-24T20:02:56.883Z,16.90
2018-12-24T20:05:25.078Z,16.37
2018-12-24T20:08:04.444Z,16.47
2018-12-24T20:10:39.217Z,15.07
2018-12-24T20:13:07.564Z,16.70
2018-12-24T20:15:35.790Z,17.63
2018-12-24T20:18:04.431Z,17.13
2018-12-24T20:20:32.573Z,16.77
2018-12-24T20:23:01.257Z,16.43
2018-12-24T20:25:29.340Z,15.30
2018-12-24T20:27:58.012Z,15.60
2018-12-24T20:30:26.092Z,17.07
2018-12-24T20:32:54.361Z,17.07
2018-12-24T20:35:22.565Z,17.70
2018-12-24T20:37:51.066Z,18.03
2018-12-24T20:40:19.213Z,18.03
2018-12-24T20:42:47.407Z,16.43
2018-12-24T20:45:15.580Z,18.23
2018-12-24T20:47:43.714Z,21.53
2018-12-24T20:50:12.199Z,21.50
2018-12-24T20:52:41.548Z,22.50
2018-12-24T20:55:10.911Z,21.07
2018-12-24T20:57:39.081Z,19.33
2018-12-24T21:00:07.389Z,29.77
2018-12-24T21:02:35.469Z,27.87
2018-12-24T21:05:03.754Z,23.77
2018-12-24T21:07:34.098Z,26.67
2018-12-24T21:10:02.280Z,28.73
2018-12-24T21:12:33.526Z,28.93
2018-12-24T21:15:01.721Z,27.00
2018-12-24T21:17:30.722Z,28.87
2018-12-24T21:19:59.213Z,43.53
2018-12-24T21:22:27.331Z,33.40
2018-12-24T21:24:57.115Z,29.33
2018-12-24T21:27:25.250Z,28.90
2018-12-24T21:29:53.598Z,29.27
2018-12-24T21:32:25.232Z,28.10
2018-12-24T21:34:53.366Z,30.33
2018-12-24T21:37:21.456Z,30.73
2018-12-24T21:39:49.909Z,30.73
2018-12-24T21:42:18.064Z,32.10
2018-12-24T21:44:46.164Z,30.73
2018-12-24T21:47:14.286Z,26.73
2018-12-24T21:49:42.865Z,27.83
2018-12-24T21:52:11.076Z,29.70
2018-12-24T21:54:39.233Z,30.00
2018-12-24T21:57:08.395Z,30.10
2018-12-24T21:59:49.004Z,30.10
2018-12-24T22:02:07.135Z,27.40
2018-12-24T22:04:35.316Z,29.23
2018-12-24T22:07:03.576Z,26.23
2018-12-24T22:09:31.682Z,25.40
2018-12-24T22:11:59.834Z,23.93
2018-12-24T22:14:29.510Z,23.53
2018-12-24T22:16:57.694Z,23.40
2018-12-24T22:19:25.919Z,25.67
2018-12-24T22:21:54.012Z,27.57
2018-12-24T22:24:22.120Z,25.23
2018-12-24T22:26:50.344Z,26.17
2018-12-24T22:29:18.528Z,25.17
2018-12-24T22:31:46.681Z,26.87
2018-12-24T22:34:15.488Z,26.93
2018-12-24T22:36:43.606Z,26.57
2018-12-24T22:39:11.814Z,27.13
2018-12-24T22:41:40.136Z,26.23
2018-12-24T22:44:08.260Z,26.00
2018-12-24T22:46:36.421Z,24.60
2018-12-24T22:49:05.799Z,22.50
2018-12-24T22:51:33.950Z,23.50
2018-12-24T22:54:02.138Z,24.07
2018-12-24T22:56:30.275Z,22.80
2018-12-24T22:59:01.034Z,21.07
2018-12-24T23:01:30.193Z,21.03
2018-12-24T23:07:27.155Z,19.70
2018-12-24T23:10:00.887Z,19.33
2018-12-24T23:12:29.038Z,18.17
2018-12-24T23:15:00.191Z,18.73
2018-12-24T23:17:28.317Z,18.03
2018-12-24T23:19:56.592Z,17.63
2018-12-24T23:22:25.045Z,15.90
2018-12-24T23:24:53.153Z,16.60
2018-12-24T23:27:21.271Z,17.93
2018-12-24T23:29:49.371Z,19.20
2018-12-24T23:32:17.559Z,17.63
2018-12-24T23:34:46.699Z,17.20
2018-12-24T23:37:14.811Z,16.40
2018-12-24T23:39:42.967Z,16.67
2018-12-24T23:42:11.632Z,16.30
2018-12-24T23:44:40.963Z,16.40
2018-12-24T23:47:09.115Z,16.23
2018-12-24T23:49:37.760Z,16.10
2018-12-24T23:52:05.926Z,16.27
2018-12-24T23:54:34.568Z,16.00
2018-12-24T23:57:03.004Z,16.57
2018-12-24T23:59:31.141Z,15.90
